Terminal Aerodrome Forecast
Issued by NWS

Home | Current Version | Previous Version | Text Only | Print | Product List | Glossary On
Versions: 1 2 3 4 5 6 7 8 9 10 11 12 13 14 15 16 17 18 19 20 21 22 23
000
FTUS41 KRNK 230520
TAFLWB
TAF
KLWB 230520Z 2306/2406 VRB03KT P6SM VCTS BKN045CB
      TEMPO 2306/2308 4SM SHRA BR BKN025
     FM231200 27004KT P6SM BKN045
     FM231600 26007KT P6SM BKN070
     FM231800 25008KT P6SM VCTS SCT035CB BKN070
     FM240200 VRB03KT P6SM BKN120=

USA.gov is the U.S. government's official web portal to all federal, state and local government web resources and services.